TIX221 CYMM-CYZF
Flight info
| Callsign | TIX221 |
|---|---|
| Flight time | 1h 11m |
| Altitude | 38000 |
| Route | YSM |
| Aircraft | B738/M-SDGIJ1LRWY/SB1 |
Departure
| Time | 2026-05-05 23:44 |
|---|---|
| Airport | Fort McMurray International Airport (CYMM) |
Arrival
| Time | 2026-05-06 00:56 |
|---|---|
| Airport | Yellowknife International Airport (CYZF) |
| Time | Latitude | Longitude | Altitude | Speed | Heading |
|---|---|---|---|---|---|
| 2026-05-05 23:09 | 56.64962 | -111.22874 | 1216 ft | 0 kts | 269° |
| 2026-05-05 23:35 | 56.64962 | -111.22866 | 1216 ft | 2 kts | 269° |
| 2026-05-05 23:35 | 56.64962 | -111.22839 | 1216 ft | 2 kts | 284° |
| 2026-05-05 23:36 | 56.64956 | -111.22813 | 1216 ft | 2 kts | 305° |
| 2026-05-05 23:36 | 56.64946 | -111.22794 | 1217 ft | 2 kts | 327° |
| 2026-05-05 23:36 | 56.64932 | -111.22783 | 1217 ft | 2 kts | 347° |
| 2026-05-05 23:36 | 56.64924 | -111.22781 | 1217 ft | 1 kts | 360° |
| 2026-05-05 23:37 | 56.64919 | -111.22781 | 1217 ft | 0 kts | 360° |
| 2026-05-05 23:39 | 56.64941 | -111.22763 | 1217 ft | 7 kts | 57° |
| 2026-05-05 23:40 | 56.64962 | -111.22641 | 1216 ft | 12 kts | 80° |
| 2026-05-05 23:40 | 56.65022 | -111.22498 | 1214 ft | 17 kts | 16° |
| 2026-05-05 23:40 | 56.65147 | -111.22460 | 1211 ft | 19 kts | 52° |
| 2026-05-05 23:40 | 56.65161 | -111.22204 | 1210 ft | 22 kts | 91° |
| 2026-05-05 23:41 | 56.65162 | -111.21913 | 1208 ft | 24 kts | 89° |
| 2026-05-05 23:41 | 56.65161 | -111.21590 | 1207 ft | 26 kts | 91° |
| 2026-05-05 23:41 | 56.65163 | -111.21238 | 1206 ft | 27 kts | 87° |
| 2026-05-05 23:41 | 56.65162 | -111.20895 | 1205 ft | 27 kts | 90° |
| 2026-05-05 23:42 | 56.65161 | -111.20622 | 1205 ft | 5 kts | 88° |
| 2026-05-05 23:42 | 56.65163 | -111.20559 | 1205 ft | 5 kts | 82° |
| 2026-05-05 23:42 | 56.65195 | -111.20499 | 1204 ft | 8 kts | 13° |
| 2026-05-05 23:42 | 56.65273 | -111.20481 | 1203 ft | 13 kts | 4° |
| 2026-05-05 23:43 | 56.65319 | -111.20579 | 1202 ft | 6 kts | 270° |
| 2026-05-05 23:43 | 56.65319 | -111.20581 | 1202 ft | 0 kts | 270° |
| 2026-05-05 23:43 | 56.65319 | -111.20606 | 1202 ft | 17 kts | 270° |
| 2026-05-05 23:43 | 56.65320 | -111.21322 | 1203 ft | 93 kts | 271° |
| 2026-05-05 23:44 | 56.65320 | -111.22897 | 1209 ft | 154 kts | 270° |
| 2026-05-05 23:44 | 56.65324 | -111.25069 | 1459 ft | 182 kts | 272° |
| 2026-05-05 23:44 | 56.65352 | -111.27393 | 2155 ft | 188 kts | 274° |
| 2026-05-05 23:44 | 56.65434 | -111.29820 | 2853 ft | 197 kts | 277° |
| 2026-05-05 23:45 | 56.65589 | -111.32278 | 3518 ft | 199 kts | 280° |
| 2026-05-05 23:45 | 56.65838 | -111.34740 | 4115 ft | 202 kts | 284° |
| 2026-05-05 23:45 | 56.66192 | -111.37167 | 4795 ft | 202 kts | 289° |
| 2026-05-05 23:45 | 56.66698 | -111.39767 | 4767 ft | 241 kts | 293° |
| 2026-05-05 23:46 | 56.67434 | -111.42761 | 4836 ft | 272 kts | 298° |
| 2026-05-05 23:46 | 56.68282 | -111.45657 | 6247 ft | 246 kts | 302° |
| 2026-05-05 23:46 | 56.69069 | -111.47982 | 7822 ft | 207 kts | 306° |
| 2026-05-05 23:46 | 56.69935 | -111.50172 | 8074 ft | 230 kts | 310° |
| 2026-05-05 23:47 | 56.71070 | -111.52580 | 7852 ft | 271 kts | 315° |
| 2026-05-05 23:47 | 56.72407 | -111.55004 | 8745 ft | 265 kts | 319° |
| 2026-05-05 23:47 | 56.73658 | -111.56993 | 10337 ft | 228 kts | 322° |
| 2026-05-05 23:47 | 56.74891 | -111.58707 | 11071 ft | 227 kts | 327° |
| 2026-05-05 23:48 | 56.76318 | -111.60390 | 10941 ft | 263 kts | 330° |
| 2026-05-05 23:48 | 56.77986 | -111.62045 | 11236 ft | 280 kts | 335° |
| 2026-05-05 23:48 | 56.79681 | -111.63468 | 12588 ft | 256 kts | 339° |
| 2026-05-05 23:48 | 56.81208 | -111.64547 | 13891 ft | 231 kts | 342° |
| 2026-05-05 23:49 | 56.82771 | -111.65437 | 14222 ft | 246 kts | 345° |
| 2026-05-05 23:49 | 56.84599 | -111.66209 | 14220 ft | 276 kts | 349° |
| 2026-05-05 23:49 | 56.86517 | -111.66753 | 14912 ft | 277 kts | 353° |
| 2026-05-05 23:49 | 56.88452 | -111.66591 | 15245 ft | 292 kts | 15° |
| 2026-05-05 23:50 | 56.90340 | -111.65007 | 15733 ft | 303 kts | 24° |
| 2026-05-05 23:50 | 56.92335 | -111.63738 | 16091 ft | 311 kts | 5° |
| 2026-05-05 23:50 | 56.94484 | -111.63940 | 16712 ft | 313 kts | 351° |
| 2026-05-05 23:50 | 56.96655 | -111.64699 | 17351 ft | 316 kts | 351° |
| 2026-05-05 23:51 | 56.98814 | -111.65349 | 18107 ft | 314 kts | 353° |
| 2026-05-05 23:51 | 57.00967 | -111.65772 | 18939 ft | 311 kts | 355° |
| 2026-05-05 23:51 | 57.03164 | -111.66048 | 19481 ft | 316 kts | 357° |
| 2026-05-05 23:51 | 57.05363 | -111.66253 | 20084 ft | 319 kts | 357° |
| 2026-05-05 23:52 | 57.07599 | -111.66447 | 20676 ft | 321 kts | 356° |
| 2026-05-05 23:52 | 57.09845 | -111.66644 | 21249 ft | 324 kts | 357° |
| 2026-05-05 23:52 | 57.12106 | -111.66848 | 21842 ft | 326 kts | 356° |
| 2026-05-05 23:52 | 57.14392 | -111.67061 | 22393 ft | 329 kts | 356° |
| 2026-05-05 23:53 | 57.16671 | -111.67275 | 22959 ft | 332 kts | 356° |
| 2026-05-05 23:53 | 57.19004 | -111.67495 | 23565 ft | 333 kts | 356° |
| 2026-05-05 23:53 | 57.21338 | -111.67717 | 24092 ft | 335 kts | 356° |
| 2026-05-05 23:53 | 57.23647 | -111.67938 | 24586 ft | 337 kts | 356° |
| 2026-05-05 23:54 | 57.25991 | -111.68164 | 25105 ft | 339 kts | 355° |
| 2026-05-05 23:54 | 57.28375 | -111.68394 | 25568 ft | 342 kts | 355° |
| 2026-05-05 23:54 | 57.30746 | -111.68623 | 26147 ft | 341 kts | 355° |
| 2026-05-05 23:54 | 57.33125 | -111.68855 | 26607 ft | 343 kts | 356° |
| 2026-05-05 23:55 | 57.35489 | -111.69085 | 27101 ft | 343 kts | 355° |
| 2026-05-05 23:55 | 57.37922 | -111.69321 | 27536 ft | 345 kts | 355° |
| 2026-05-05 23:55 | 57.40305 | -111.69552 | 27966 ft | 347 kts | 355° |
| 2026-05-05 23:55 | 57.42764 | -111.69791 | 28392 ft | 349 kts | 355° |
| 2026-05-05 23:56 | 57.45177 | -111.70026 | 28811 ft | 350 kts | 355° |
| 2026-05-05 23:56 | 57.47632 | -111.70267 | 29193 ft | 352 kts | 355° |
| 2026-05-05 23:56 | 57.50087 | -111.70507 | 29590 ft | 354 kts | 355° |
| 2026-05-05 23:56 | 57.52541 | -111.70746 | 29957 ft | 355 kts | 355° |
| 2026-05-05 23:57 | 57.55030 | -111.70989 | 30387 ft | 356 kts | 355° |
| 2026-05-05 23:57 | 57.57523 | -111.71233 | 30715 ft | 359 kts | 355° |
| 2026-05-05 23:57 | 57.60021 | -111.71477 | 31133 ft | 360 kts | 354° |
| 2026-05-05 23:57 | 57.62524 | -111.71724 | 31431 ft | 363 kts | 355° |
| 2026-05-05 23:58 | 57.65072 | -111.71974 | 31809 ft | 364 kts | 354° |
| 2026-05-05 23:58 | 57.67588 | -111.72221 | 32205 ft | 365 kts | 354° |
| 2026-05-05 23:58 | 57.70134 | -111.72469 | 32743 ft | 361 kts | 355° |
| 2026-05-05 23:58 | 57.72617 | -111.72714 | 33327 ft | 357 kts | 355° |
| 2026-05-05 23:59 | 57.75079 | -111.72955 | 33822 ft | 354 kts | 354° |
| 2026-05-05 23:59 | 57.77526 | -111.73194 | 34257 ft | 352 kts | 354° |
| 2026-05-05 23:59 | 57.79989 | -111.73441 | 34572 ft | 352 kts | 354° |
| 2026-05-05 23:59 | 57.82434 | -111.73686 | 34790 ft | 353 kts | 354° |
| 2026-05-06 00:00 | 57.84896 | -111.73933 | 34925 ft | 357 kts | 354° |
| 2026-05-06 00:00 | 57.87378 | -111.74182 | 35179 ft | 357 kts | 354° |
| 2026-05-06 00:00 | 57.89890 | -111.74435 | 35391 ft | 359 kts | 354° |
| 2026-05-06 00:00 | 57.92390 | -111.74687 | 35567 ft | 360 kts | 354° |
| 2026-05-06 00:01 | 57.94918 | -111.74940 | 35792 ft | 361 kts | 354° |
| 2026-05-06 00:01 | 57.97411 | -111.75188 | 36032 ft | 361 kts | 354° |
| 2026-05-06 00:01 | 57.99919 | -111.75440 | 36257 ft | 361 kts | 354° |
| 2026-05-06 00:01 | 58.02415 | -111.75690 | 36387 ft | 364 kts | 354° |
| 2026-05-06 00:02 | 58.04957 | -111.75944 | 36599 ft | 364 kts | 354° |
| 2026-05-06 00:02 | 58.07498 | -111.76202 | 36696 ft | 367 kts | 354° |
| 2026-05-06 00:02 | 58.10062 | -111.76459 | 36906 ft | 368 kts | 354° |
| 2026-05-06 00:02 | 58.12628 | -111.76715 | 37162 ft | 368 kts | 354° |
| 2026-05-06 00:03 | 58.15221 | -111.76975 | 37431 ft | 368 kts | 354° |
| 2026-05-06 00:03 | 58.17799 | -111.77236 | 37628 ft | 369 kts | 354° |
| 2026-05-06 00:03 | 58.20355 | -111.77498 | 37743 ft | 371 kts | 354° |
| 2026-05-06 00:03 | 58.22933 | -111.77760 | 37948 ft | 372 kts | 354° |
| 2026-05-06 00:04 | 58.25544 | -111.78024 | 38096 ft | 373 kts | 354° |
| 2026-05-06 00:04 | 58.28138 | -111.78285 | 38171 ft | 375 kts | 354° |
| 2026-05-06 00:04 | 58.33364 | -111.78821 | 38171 ft | 373 kts | 354° |
| 2026-05-06 00:05 | 58.41181 | -111.79624 | 38171 ft | 375 kts | 354° |
| 2026-05-06 00:06 | 58.46377 | -111.80159 | 38170 ft | 374 kts | 354° |
| 2026-05-06 00:06 | 58.51575 | -111.80692 | 38170 ft | 374 kts | 354° |
| 2026-05-06 00:07 | 58.57631 | -111.81319 | 38168 ft | 375 kts | 354° |
| 2026-05-06 00:07 | 58.61988 | -111.81774 | 38171 ft | 378 kts | 354° |
| 2026-05-06 00:08 | 58.67242 | -111.82320 | 38172 ft | 374 kts | 354° |
| 2026-05-06 00:08 | 58.72464 | -111.82864 | 38172 ft | 374 kts | 354° |
| 2026-05-06 00:09 | 58.77686 | -111.83412 | 38175 ft | 378 kts | 354° |
| 2026-05-06 00:09 | 58.82899 | -111.83959 | 38172 ft | 377 kts | 354° |
| 2026-05-06 00:10 | 58.88168 | -111.84513 | 38169 ft | 376 kts | 354° |
| 2026-05-06 00:10 | 58.93392 | -111.85066 | 38173 ft | 376 kts | 354° |
| 2026-05-06 00:11 | 58.98591 | -111.85579 | 38177 ft | 377 kts | 354° |
| 2026-05-06 00:11 | 59.03849 | -111.86144 | 38175 ft | 378 kts | 354° |
| 2026-05-06 00:12 | 59.09141 | -111.86725 | 38160 ft | 378 kts | 354° |
| 2026-05-06 00:12 | 59.14321 | -111.87288 | 38173 ft | 379 kts | 354° |
| 2026-05-06 00:13 | 59.19536 | -111.87849 | 38157 ft | 377 kts | 354° |
| 2026-05-06 00:13 | 59.24739 | -111.88410 | 38158 ft | 379 kts | 354° |
| 2026-05-06 00:14 | 59.30005 | -111.88980 | 38161 ft | 378 kts | 354° |
| 2026-05-06 00:14 | 59.35288 | -111.89555 | 38161 ft | 379 kts | 354° |
| 2026-05-06 00:15 | 59.40547 | -111.90126 | 38159 ft | 378 kts | 354° |
| 2026-05-06 00:15 | 59.45799 | -111.90698 | 38151 ft | 379 kts | 354° |
| 2026-05-06 00:16 | 59.51040 | -111.91267 | 38155 ft | 380 kts | 354° |
| 2026-05-06 00:16 | 59.56314 | -111.91847 | 38151 ft | 381 kts | 354° |
| 2026-05-06 00:17 | 59.61641 | -111.92436 | 38147 ft | 381 kts | 354° |
| 2026-05-06 00:17 | 59.66925 | -111.93017 | 38152 ft | 381 kts | 354° |
| 2026-05-06 00:18 | 59.72242 | -111.93603 | 38154 ft | 380 kts | 354° |
| 2026-05-06 00:18 | 59.77540 | -111.94190 | 38155 ft | 382 kts | 354° |
| 2026-05-06 00:19 | 59.82845 | -111.94781 | 38159 ft | 381 kts | 354° |
| 2026-05-06 00:19 | 59.88167 | -111.95375 | 38163 ft | 382 kts | 354° |
| 2026-05-06 00:20 | 59.93465 | -111.95971 | 38167 ft | 382 kts | 354° |
| 2026-05-06 00:20 | 59.98737 | -111.96632 | 38182 ft | 381 kts | 352° |
| 2026-05-06 00:21 | 60.03931 | -111.98684 | 38178 ft | 380 kts | 340° |
| 2026-05-06 00:21 | 60.08849 | -112.02548 | 38173 ft | 382 kts | 336° |
| 2026-05-06 00:22 | 60.13683 | -112.06763 | 38176 ft | 379 kts | 336° |
| 2026-05-06 00:22 | 60.18553 | -112.11004 | 38157 ft | 379 kts | 336° |
| 2026-05-06 00:23 | 60.23403 | -112.15202 | 38158 ft | 381 kts | 337° |
| 2026-05-06 00:23 | 60.28301 | -112.19434 | 38146 ft | 380 kts | 337° |
| 2026-05-06 00:24 | 60.33139 | -112.23625 | 38145 ft | 380 kts | 336° |
| 2026-05-06 00:24 | 60.38018 | -112.27863 | 38144 ft | 381 kts | 336° |
| 2026-05-06 00:25 | 60.42870 | -112.32089 | 38143 ft | 381 kts | 336° |
| 2026-05-06 00:25 | 60.47760 | -112.36363 | 38146 ft | 382 kts | 336° |
| 2026-05-06 00:26 | 60.52625 | -112.40630 | 38146 ft | 380 kts | 336° |
| 2026-05-06 00:26 | 60.57477 | -112.44901 | 38143 ft | 380 kts | 336° |
| 2026-05-06 00:27 | 60.62335 | -112.49187 | 38140 ft | 382 kts | 336° |
| 2026-05-06 00:27 | 60.67188 | -112.53485 | 38141 ft | 381 kts | 336° |
| 2026-05-06 00:28 | 60.72097 | -112.57844 | 38137 ft | 382 kts | 336° |
| 2026-05-06 00:28 | 60.76966 | -112.62183 | 38134 ft | 380 kts | 336° |
| 2026-05-06 00:29 | 60.81806 | -112.66515 | 38128 ft | 382 kts | 336° |
| 2026-05-06 00:29 | 60.86707 | -112.70911 | 38130 ft | 383 kts | 335° |
| 2026-05-06 00:30 | 60.91566 | -112.75288 | 38129 ft | 381 kts | 336° |
| 2026-05-06 00:30 | 60.96440 | -112.79697 | 38126 ft | 381 kts | 336° |
| 2026-05-06 00:31 | 61.01286 | -112.84092 | 38123 ft | 383 kts | 335° |
| 2026-05-06 00:31 | 61.06173 | -112.88533 | 38044 ft | 382 kts | 335° |
| 2026-05-06 00:31 | 61.08623 | -112.90766 | 37087 ft | 388 kts | 335° |
| 2026-05-06 00:32 | 61.11047 | -112.92979 | 36145 ft | 384 kts | 335° |
| 2026-05-06 00:32 | 61.13461 | -112.95185 | 35331 ft | 380 kts | 335° |
| 2026-05-06 00:32 | 61.15857 | -112.97382 | 34451 ft | 376 kts | 335° |
| 2026-05-06 00:32 | 61.18208 | -112.99540 | 33344 ft | 374 kts | 335° |
| 2026-05-06 00:33 | 61.20593 | -113.01733 | 32214 ft | 371 kts | 335° |
| 2026-05-06 00:33 | 61.22914 | -113.03870 | 31130 ft | 368 kts | 336° |
| 2026-05-06 00:33 | 61.25241 | -113.06016 | 30043 ft | 366 kts | 336° |
| 2026-05-06 00:33 | 61.27529 | -113.08131 | 29048 ft | 363 kts | 335° |
| 2026-05-06 00:34 | 61.29832 | -113.10262 | 28059 ft | 360 kts | 335° |
| 2026-05-06 00:34 | 61.32066 | -113.12333 | 27292 ft | 352 kts | 336° |
| 2026-05-06 00:34 | 61.34267 | -113.14374 | 26672 ft | 340 kts | 336° |
| 2026-05-06 00:34 | 61.36392 | -113.16350 | 26169 ft | 328 kts | 336° |
| 2026-05-06 00:35 | 61.38438 | -113.18256 | 25715 ft | 315 kts | 336° |
| 2026-05-06 00:35 | 61.40403 | -113.20087 | 25283 ft | 307 kts | 336° |
| 2026-05-06 00:35 | 61.42408 | -113.21958 | 24863 ft | 321 kts | 336° |
| 2026-05-06 00:35 | 61.44465 | -113.23880 | 24395 ft | 325 kts | 336° |
| 2026-05-06 00:36 | 61.46476 | -113.25761 | 23929 ft | 316 kts | 336° |
| 2026-05-06 00:36 | 61.48458 | -113.27621 | 23470 ft | 304 kts | 336° |
| 2026-05-06 00:36 | 61.50358 | -113.29406 | 23050 ft | 305 kts | 336° |
| 2026-05-06 00:36 | 61.52350 | -113.31279 | 22592 ft | 315 kts | 336° |
| 2026-05-06 00:37 | 61.54331 | -113.33144 | 22126 ft | 309 kts | 336° |
| 2026-05-06 00:37 | 61.56240 | -113.34945 | 21683 ft | 297 kts | 336° |
| 2026-05-06 00:37 | 61.58085 | -113.36687 | 21254 ft | 294 kts | 336° |
| 2026-05-06 00:37 | 61.59997 | -113.38493 | 20810 ft | 307 kts | 337° |
| 2026-05-06 00:38 | 61.61961 | -113.40348 | 20381 ft | 312 kts | 337° |
| 2026-05-06 00:38 | 61.63927 | -113.42210 | 19887 ft | 310 kts | 336° |
| 2026-05-06 00:38 | 61.65894 | -113.44077 | 19439 ft | 307 kts | 337° |
| 2026-05-06 00:38 | 61.67807 | -113.45896 | 18996 ft | 304 kts | 337° |
| 2026-05-06 00:39 | 61.69732 | -113.47729 | 18564 ft | 300 kts | 337° |
| 2026-05-06 00:39 | 61.71597 | -113.49509 | 18316 ft | 292 kts | 337° |
| 2026-05-06 00:39 | 61.73409 | -113.51241 | 18206 ft | 279 kts | 337° |
| 2026-05-06 00:39 | 61.75178 | -113.52934 | 18125 ft | 285 kts | 337° |
| 2026-05-06 00:40 | 61.77040 | -113.54710 | 18009 ft | 299 kts | 337° |
| 2026-05-06 00:40 | 61.78945 | -113.56533 | 17847 ft | 297 kts | 337° |
| 2026-05-06 00:40 | 61.80799 | -113.58313 | 17532 ft | 292 kts | 337° |
| 2026-05-06 00:40 | 61.82642 | -113.60085 | 17132 ft | 290 kts | 337° |
| 2026-05-06 00:41 | 61.84460 | -113.61835 | 16711 ft | 288 kts | 336° |
| 2026-05-06 00:41 | 61.86269 | -113.63577 | 16297 ft | 286 kts | 336° |
| 2026-05-06 00:41 | 61.88059 | -113.65304 | 15887 ft | 284 kts | 335° |
| 2026-05-06 00:41 | 61.89877 | -113.67059 | 15480 ft | 282 kts | 336° |
| 2026-05-06 00:42 | 61.91670 | -113.68793 | 15063 ft | 280 kts | 335° |
| 2026-05-06 00:42 | 61.93422 | -113.70489 | 14673 ft | 278 kts | 335° |
| 2026-05-06 00:42 | 61.95172 | -113.72185 | 14273 ft | 276 kts | 335° |
| 2026-05-06 00:42 | 61.96915 | -113.73877 | 13874 ft | 274 kts | 335° |
| 2026-05-06 00:43 | 61.98663 | -113.75576 | 13595 ft | 279 kts | 335° |
| 2026-05-06 00:43 | 62.00443 | -113.77308 | 13222 ft | 287 kts | 335° |
| 2026-05-06 00:43 | 62.02280 | -113.79098 | 12809 ft | 287 kts | 335° |
| 2026-05-06 00:43 | 62.04086 | -113.80860 | 12415 ft | 284 kts | 335° |
| 2026-05-06 00:44 | 62.05853 | -113.82587 | 12027 ft | 282 kts | 335° |
| 2026-05-06 00:44 | 62.07637 | -113.84334 | 11623 ft | 280 kts | 335° |
| 2026-05-06 00:44 | 62.09390 | -113.86051 | 11248 ft | 278 kts | 335° |
| 2026-05-06 00:44 | 62.11173 | -113.87800 | 10863 ft | 276 kts | 335° |
| 2026-05-06 00:45 | 62.12953 | -113.89548 | 10471 ft | 285 kts | 335° |
| 2026-05-06 00:45 | 62.14788 | -113.91353 | 10155 ft | 285 kts | 335° |
| 2026-05-06 00:45 | 62.16554 | -113.93092 | 10045 ft | 274 kts | 335° |
| 2026-05-06 00:45 | 62.18278 | -113.94791 | 9817 ft | 267 kts | 335° |
| 2026-05-06 00:46 | 62.19952 | -113.96444 | 9423 ft | 267 kts | 335° |
| 2026-05-06 00:46 | 62.21643 | -113.98115 | 9085 ft | 265 kts | 335° |
| 2026-05-06 00:46 | 62.23305 | -113.99759 | 8742 ft | 263 kts | 335° |
| 2026-05-06 00:46 | 62.24960 | -114.01399 | 8400 ft | 263 kts | 335° |
| 2026-05-06 00:47 | 62.26666 | -114.03091 | 8064 ft | 274 kts | 335° |
| 2026-05-06 00:47 | 62.28392 | -114.04806 | 7683 ft | 274 kts | 335° |
| 2026-05-06 00:47 | 62.30116 | -114.06519 | 7328 ft | 277 kts | 334° |
| 2026-05-06 00:47 | 62.31937 | -114.08332 | 6957 ft | 292 kts | 334° |
| 2026-05-06 00:48 | 62.33779 | -114.10168 | 6578 ft | 294 kts | 334° |
| 2026-05-06 00:48 | 62.35635 | -114.12020 | 6184 ft | 292 kts | 334° |
| 2026-05-06 00:48 | 62.37528 | -114.13914 | 5829 ft | 314 kts | 334° |
| 2026-05-06 00:48 | 62.39552 | -114.15945 | 5309 ft | 323 kts | 334° |
| 2026-05-06 00:49 | 62.41588 | -114.17986 | 5050 ft | 322 kts | 335° |
| 2026-05-06 00:49 | 62.43638 | -114.20043 | 4967 ft | 323 kts | 334° |
| 2026-05-06 00:49 | 62.45687 | -114.22104 | 4960 ft | 324 kts | 335° |
| 2026-05-06 00:49 | 62.47731 | -114.24161 | 4946 ft | 324 kts | 335° |
| 2026-05-06 00:50 | 62.49811 | -114.26165 | 4961 ft | 326 kts | 339° |
| 2026-05-06 00:50 | 62.51976 | -114.27434 | 4957 ft | 326 kts | 351° |
| 2026-05-06 00:50 | 62.54219 | -114.27920 | 4957 ft | 317 kts | 358° |
| 2026-05-06 00:50 | 62.56363 | -114.28303 | 4955 ft | 300 kts | 349° |
| 2026-05-06 00:51 | 62.58223 | -114.29978 | 4955 ft | 281 kts | 321° |
| 2026-05-06 00:51 | 62.59425 | -114.33061 | 4957 ft | 263 kts | 296° |
| 2026-05-06 00:51 | 62.60064 | -114.36735 | 4920 ft | 254 kts | 281° |
| 2026-05-06 00:51 | 62.60309 | -114.40509 | 4489 ft | 256 kts | 270° |
| 2026-05-06 00:52 | 62.60175 | -114.44273 | 4030 ft | 248 kts | 252° |
| 2026-05-06 00:52 | 62.59497 | -114.47668 | 3506 ft | 239 kts | 234° |
| 2026-05-06 00:52 | 62.58471 | -114.50440 | 2972 ft | 233 kts | 222° |
| 2026-05-06 00:52 | 62.57265 | -114.52574 | 2542 ft | 221 kts | 207° |
| 2026-05-06 00:53 | 62.55903 | -114.53780 | 2254 ft | 203 kts | 192° |
| 2026-05-06 00:53 | 62.54557 | -114.54063 | 2048 ft | 185 kts | 168° |
| 2026-05-06 00:53 | 62.53509 | -114.52801 | 1944 ft | 168 kts | 134° |
| 2026-05-06 00:53 | 62.52807 | -114.50919 | 1839 ft | 156 kts | 133° |
| 2026-05-06 00:54 | 62.52144 | -114.49194 | 1735 ft | 140 kts | 134° |
| 2026-05-06 00:54 | 62.51511 | -114.47589 | 1690 ft | 143 kts | 135° |
| 2026-05-06 00:54 | 62.50773 | -114.46114 | 1681 ft | 137 kts | 149° |
| 2026-05-06 00:54 | 62.49924 | -114.45164 | 1425 ft | 145 kts | 158° |
| 2026-05-06 00:55 | 62.48939 | -114.44640 | 1148 ft | 149 kts | 173° |
| 2026-05-06 00:55 | 62.47895 | -114.44486 | 872 ft | 146 kts | 172° |
| 2026-05-06 00:55 | 62.46897 | -114.44338 | 682 ft | 137 kts | 174° |
| 2026-05-06 00:55 | 62.46224 | -114.44233 | 680 ft | 58 kts | 175° |
| 2026-05-06 00:56 | 62.46043 | -114.44146 | 678 ft | 4 kts | 354° |
| 2026-05-06 00:56 | 62.46057 | -114.44163 | 678 ft | 6 kts | 332° |
| 2026-05-06 00:56 | 62.46164 | -114.44222 | 680 ft | 26 kts | 350° |
| 2026-05-06 00:56 | 62.46421 | -114.44261 | 682 ft | 47 kts | 358° |
| 2026-05-06 00:57 | 62.46777 | -114.44306 | 681 ft | 44 kts | 352° |
| 2026-05-06 00:57 | 62.46947 | -114.44133 | 680 ft | 2 kts | 57° |
| 2026-05-06 00:57 | 62.46954 | -114.44111 | 680 ft | 6 kts | 57° |
| 2026-05-06 00:57 | 62.47000 | -114.44017 | 680 ft | 6 kts | 5° |
| 2026-05-06 00:58 | 62.47039 | -114.44006 | 679 ft | 0 kts | 30° |
| 2026-05-06 00:58 | 62.47046 | -114.43970 | 679 ft | 4 kts | 87° |
| 2026-05-06 00:58 | 62.47047 | -114.43911 | 679 ft | 2 kts | 88° |
| 2026-05-06 00:58 | 62.47047 | -114.43889 | 679 ft | 0 kts | 87° |
| 2026-05-06 00:59 | 62.47047 | -114.43883 | 679 ft | 0 kts | 87° |